Time;durP1;ratioP1;P1;durP2;ratioP2;P2;SDS_P1;SDS_P2;PMS_P1;PMS_P2;Temp;Humidity;BMP_temperature;BMP_pressure;BME280_temperature;BME280_humidity;BME280_pressure;Samples;Min_cycle;Max_cycle;Signal;HPM_P1;HPM_P2
2022/12/08 00:02:24;;;;;;;49.10;24.60;;;;;;;2.25;100.00;100979.34;105585;1284;61300;-77
2022/12/08 00:10:27;;;;;;;44.10;22.50;;;;;;;2.28;100.00;100983.36;105381;1287;57698;-77
2022/12/08 00:13:16;;;;;;;44.70;22.90;;;;;;;2.30;100.00;100977.27;105432;1289;57138;-74
2022/12/08 00:15:45;;;;;;;45.90;23.00;;;;;;;2.24;100.00;100975.92;105446;1299;73711;-73
2022/12/08 00:18:13;;;;;;;40.80;21.70;;;;;;;2.24;100.00;100975.77;105637;1293;63266;-74
2022/12/08 00:20:42;;;;;;;48.90;21.50;;;;;;;2.19;100.00;100974.91;105236;1294;68070;-75
2022/12/08 00:23:11;;;;;;;41.70;22.50;;;;;;;2.12;100.00;100984.58;105443;1293;73197;-74
2022/12/08 00:25:39;;;;;;;42.70;22.50;;;;;;;2.04;100.00;100987.61;105475;1288;57191;-75
2022/12/08 00:28:08;;;;;;;37.90;19.90;;;;;;;1.94;100.00;100990.85;105464;1292;57781;-74
2022/12/08 00:30:40;;;;;;;42.00;21.50;;;;;;;1.87;100.00;100992.43;105429;1299;71391;-75
2022/12/08 00:33:10;;;;;;;40.90;22.60;;;;;;;1.76;100.00;100991.91;105366;1290;72443;-75
2022/12/08 00:35:38;;;;;;;47.80;22.90;;;;;;;1.66;100.00;100993.64;105466;1287;71253;-73
2022/12/08 00:38:11;;;;;;;54.40;27.90;;;;;;;1.55;100.00;100998.40;105604;1287;74460;-73
2022/12/08 00:40:46;;;;;;;42.60;22.20;;;;;;;1.43;100.00;101004.95;105318;1296;62366;-72
2022/12/08 00:43:15;;;;;;;54.30;28.50;;;;;;;1.35;100.00;101006.41;105385;1287;57636;-74
2022/12/08 00:45:44;;;;;;;51.20;27.90;;;;;;;1.25;100.00;101008.58;105488;1292;72821;-75
2022/12/08 00:48:12;;;;;;;43.20;23.70;;;;;;;1.16;100.00;101010.89;105535;1290;72208;-74
2022/12/08 00:50:41;;;;;;;39.50;22.10;;;;;;;1.03;100.00;101010.73;105493;1299;60034;-74
2022/12/08 00:53:10;;;;;;;42.90;24.10;;;;;;;0.99;100.00;101011.20;105390;1293;62459;-73
2022/12/08 00:55:39;;;;;;;44.80;24.00;;;;;;;0.94;100.00;101018.38;105347;1292;57430;-75
2022/12/08 00:58:07;;;;;;;48.40;26.20;;;;;;;1.02;100.00;101012.83;105481;1289;60432;-74
2022/12/08 01:00:39;;;;;;;56.40;28.10;;;;;;;1.06;100.00;101005.86;105482;1298;72524;-78
2022/12/08 01:03:12;;;;;;;45.40;24.60;;;;;;;1.04;100.00;101006.61;105555;1284;60790;-77
2022/12/08 01:05:41;;;;;;;52.30;25.60;;;;;;;1.09;100.00;101005.60;105468;1289;70248;-77
2022/12/08 01:08:09;;;;;;;49.60;24.50;;;;;;;1.09;100.00;101009.03;105399;1299;73063;-76
2022/12/08 01:10:38;;;;;;;53.80;26.70;;;;;;;1.07;100.00;101011.67;105424;1293;57797;-78
2022/12/08 01:13:07;;;;;;;60.20;26.70;;;;;;;1.18;100.00;101010.00;105420;1298;58816;-79
2022/12/08 01:15:36;;;;;;;55.30;27.00;;;;;;;1.22;100.00;101005.22;105402;1297;73661;-79
2022/12/08 01:18:04;;;;;;;56.40;28.10;;;;;;;1.16;100.00;100998.89;105556;1287;71327;-79
2022/12/08 01:20:33;;;;;;;51.80;26.80;;;;;;;1.02;100.00;100998.09;105367;1291;67898;-75
2022/12/08 01:23:02;;;;;;;50.70;25.10;;;;;;;1.10;100.00;101000.60;105427;1293;62501;-76
2022/12/08 01:25:34;;;;;;;52.70;25.70;;;;;;;1.15;100.00;101000.28;105417;1287;61304;-75
2022/12/08 01:28:03;;;;;;;54.00;24.70;;;;;;;1.03;100.00;100996.51;105320;1287;57709;-76
2022/12/08 01:30:32;;;;;;;43.50;23.90;;;;;;;0.88;100.00;100992.48;105361;1288;73569;-74
2022/12/08 01:33:01;;;;;;;51.80;21.50;;;;;;;0.69;100.00;100995.23;105566;1294;72587;-74
2022/12/08 01:35:29;;;;;;;52.90;22.40;;;;;;;0.65;100.00;100995.67;105356;1299;68906;-75
2022/12/08 01:37:58;;;;;;;45.50;23.50;;;;;;;0.65;100.00;101002.54;105301;1293;71266;-75
2022/12/08 01:40:27;;;;;;;50.70;26.20;;;;;;;0.75;100.00;101009.63;105448;1292;61348;-77
2022/12/08 01:42:55;;;;;;;52.30;24.40;;;;;;;0.78;100.00;101012.64;105236;1290;60870;-77
2022/12/08 01:45:27;;;;;;;51.10;21.60;;;;;;;0.79;100.00;101014.17;105468;1287;71563;-77
2022/12/08 01:48:03;;;;;;;48.20;22.40;;;;;;;0.64;100.00;101015.08;105502;1287;70573;-77
2022/12/08 01:50:33;;;;;;;38.00;20.00;;;;;;;0.65;100.00;101016.77;105249;1287;60085;-75
2022/12/08 01:53:27;;;;;;;48.30;21.90;;;;;;;0.55;100.00;101014.97;105352;1284;74031;-75
2022/12/08 01:56:12;;;;;;;47.50;24.70;;;;;;;0.54;100.00;101015.84;105236;1289;62156;-75
2022/12/08 01:58:48;;;;;;;51.70;23.80;;;;;;;0.61;100.00;101016.19;105506;1291;57747;-74
2022/12/08 02:01:17;;;;;;;51.10;23.80;;;;;;;0.62;100.00;101011.69;105293;1292;71907;-74
2022/12/08 02:03:57;;;;;;;53.00;24.20;;;;;;;0.72;100.00;101014.34;105396;1290;69542;-73
2022/12/08 02:06:33;;;;;;;56.70;25.50;;;;;;;0.88;100.00;101012.73;105229;1289;69574;-74
2022/12/08 02:09:04;;;;;;;46.10;23.00;;;;;;;0.99;100.00;101014.28;105135;1295;63260;-74
2022/12/08 02:11:33;;;;;;;38.90;19.60;;;;;;;0.85;100.00;101013.98;105363;1289;57198;-72
2022/12/08 02:14:08;;;;;;;42.20;18.70;;;;;;;0.57;100.00;101008.39;105333;1293;59677;-73
2022/12/08 02:16:59;;;;;;;30.00;15.70;;;;;;;0.59;100.00;101011.79;105324;1294;73369;-77
2022/12/08 02:20:12;;;;;;;29.40;15.90;;;;;;;0.55;100.00;101015.13;105620;1288;62488;-75
2022/12/08 02:23:10;;;;;;;44.80;21.80;;;;;;;0.54;100.00;101017.20;105397;1293;69758;-76
2022/12/08 02:26:08;;;;;;;71.70;23.60;;;;;;;0.53;100.00;101014.67;105305;1299;72230;-75
2022/12/08 02:29:11;;;;;;;75.80;23.50;;;;;;;0.51;100.00;101013.02;105390;1290;59880;-76
2022/12/08 02:31:58;;;;;;;59.10;24.90;;;;;;;0.49;100.00;101009.81;105367;1298;57727;-75
2022/12/08 02:35:00;;;;;;;45.20;19.50;;;;;;;0.53;100.00;101011.23;105316;1299;62301;-76
2022/12/08 02:37:36;;;;;;;42.70;18.40;;;;;;;0.53;100.00;101012.61;105491;1286;69848;-76
2022/12/08 02:40:18;;;;;;;29.30;16.70;;;;;;;0.49;100.00;101018.20;105270;1298;69866;-75
2022/12/08 02:42:57;;;;;;;31.50;16.50;;;;;;;0.35;100.00;101019.42;105351;1298;71719;-76
2022/12/08 02:45:48;;;;;;;26.00;13.90;;;;;;;0.17;100.00;101026.36;105205;1291;59804;-76
2022/12/08 02:48:17;;;;;;;29.40;16.50;;;;;;;0.04;100.00;101030.96;105157;1301;57236;-76
2022/12/08 02:50:46;;;;;;;22.60;13.90;;;;;;;0.09;100.00;101033.92;105372;1292;71573;-77
2022/12/08 02:53:15;;;;;;;24.60;13.70;;;;;;;-0.06;100.00;101036.16;105319;1290;69684;-76
2022/12/08 02:56:01;;;;;;;28.90;15.70;;;;;;;-0.06;100.00;101040.45;105336;1299;69879;-76
2022/12/08 02:58:45;;;;;;;27.20;15.00;;;;;;;-0.11;100.00;101033.36;105337;1292;74389;-76
2022/12/08 03:02:24;;;;;;;27.30;14.70;;;;;;;0.04;100.00;101035.23;105248;1289;60237;-76
2022/12/08 03:05:18;;;;;;;22.20;13.20;;;;;;;0.09;100.00;101043.36;105224;1289;58824;-74
2022/12/08 03:08:01;;;;;;;40.10;14.70;;;;;;;0.04;100.00;101045.70;105325;1299;72764;-77
2022/12/08 03:10:39;;;;;;;37.50;14.80;;;;;;;-0.05;100.00;101045.92;105413;1283;70371;-78
2022/12/08 03:13:16;;;;;;;41.10;14.70;;;;;;;-0.07;100.00;101054.16;105460;1290;69517;-78
2022/12/08 03:15:49;;;;;;;36.30;15.20;;;;;;;-0.01;100.00;101053.71;105217;1293;72989;-74
2022/12/08 03:18:23;;;;;;;46.20;16.30;;;;;;;0.06;100.00;101057.98;105194;1298;61835;-83
2022/12/08 03:20:52;;;;;;;32.30;14.90;;;;;;;-0.05;100.00;101062.36;105202;1295;59818;-83
2022/12/08 03:23:23;;;;;;;34.60;14.30;;;;;;;-0.02;100.00;101058.00;105259;1289;71222;-74
2022/12/08 03:26:03;;;;;;;31.90;13.60;;;;;;;-0.03;100.00;101063.15;105388;1290;70002;-74
2022/12/08 03:28:32;;;;;;;37.60;14.20;;;;;;;-0.08;100.00;101061.38;105147;1295;68979;-78
2022/12/08 03:31:06;;;;;;;38.10;16.80;;;;;;;-0.13;100.00;101063.89;105254;1289;73287;-73
2022/12/08 03:33:39;;;;;;;43.00;15.90;;;;;;;-0.12;100.00;101064.90;105209;1298;60817;-74
2022/12/08 03:36:11;;;;;;;23.50;13.80;;;;;;;-0.16;100.00;101068.59;105082;1295;59571;-76
2022/12/08 03:38:45;;;;;;;30.60;14.90;;;;;;;-0.12;100.00;101065.42;105009;1298;73718;-75
2022/12/08 03:41:17;;;;;;;36.70;15.90;;;;;;;-0.19;100.00;101068.83;105330;1296;69446;-74
2022/12/08 03:43:54;;;;;;;35.10;14.40;;;;;;;-0.15;100.00;101069.76;105321;1292;70655;-80
2022/12/08 03:46:25;;;;;;;35.70;15.40;;;;;;;-0.18;100.00;101070.02;105157;1293;73850;-78
2022/12/08 03:48:53;;;;;;;33.20;15.70;;;;;;;-0.21;100.00;101073.16;105351;1292;62431;-75
2022/12/08 03:51:23;;;;;;;36.60;15.00;;;;;;;-0.19;100.00;101076.35;105252;1289;61755;-75
2022/12/08 03:53:53;;;;;;;24.60;12.30;;;;;;;-0.26;100.00;101076.69;105210;1292;71762;-74
2022/12/08 03:56:35;;;;;;;29.60;14.60;;;;;;;-0.16;100.00;101078.86;105459;1284;71551;-74
2022/12/08 03:59:06;;;;;;;31.60;15.70;;;;;;;-0.27;100.00;101083.37;105346;1298;68300;-75
2022/12/08 04:01:35;;;;;;;30.30;17.30;;;;;;;-0.28;100.00;101081.34;105139;1291;73883;-73
2022/12/08 04:04:03;;;;;;;32.60;16.40;;;;;;;-0.25;100.00;101079.05;105378;1292;62379;-75
2022/12/08 04:06:32;;;;;;;30.80;15.40;;;;;;;-0.16;100.00;101081.27;105402;1292;60189;-76
2022/12/08 04:09:01;;;;;;;29.80;16.30;;;;;;;-0.13;100.00;101080.85;105433;1292;71737;-74
2022/12/08 04:11:30;;;;;;;31.30;16.70;;;;;;;-0.21;100.00;101082.55;105449;1290;70408;-76
2022/12/08 04:13:58;;;;;;;31.10;16.10;;;;;;;-0.11;100.00;101079.08;105381;1299;68634;-75
2022/12/08 04:16:27;;;;;;;33.90;17.50;;;;;;;-0.13;100.00;101076.56;105462;1295;71773;-76
2022/12/08 04:18:56;;;;;;;38.10;20.30;;;;;;;-0.09;100.00;101072.19;105410;1288;60470;-75
2022/12/08 04:21:24;;;;;;;41.30;18.50;;;;;;;-0.12;100.00;101069.02;105430;1289;61737;-75
2022/12/08 04:23:54;;;;;;;35.40;16.90;;;;;;;-0.03;100.00;101065.02;105473;1288;70081;-76
2022/12/08 04:26:28;;;;;;;42.10;20.20;;;;;;;-0.01;100.00;101060.18;105430;1284;71710;-75
2022/12/08 04:28:57;;;;;;;27.80;14.70;;;;;;;-0.02;100.00;101063.81;105446;1293;68665;-75
2022/12/08 04:31:26;;;;;;;38.30;16.70;;;;;;;-0.04;100.00;101057.17;105470;1294;72771;-75
2022/12/08 04:33:55;;;;;;;42.10;20.20;;;;;;;-0.11;100.00;101059.40;105479;1293;60826;-75
2022/12/08 04:36:23;;;;;;;33.60;17.20;;;;;;;-0.13;100.00;101045.23;105382;1289;60635;-74
2022/12/08 04:38:52;;;;;;;36.30;17.40;;;;;;;-0.02;100.00;101057.80;105343;1293;69805;-75
2022/12/08 04:41:21;;;;;;;36.70;16.90;;;;;;;0.05;100.00;101054.06;105428;1290;70410;-73
2022/12/08 04:43:50;;;;;;;31.70;14.00;;;;;;;0.12;100.00;101046.88;105409;1288;69419;-74
2022/12/08 04:46:18;;;;;;;21.90;12.20;;;;;;;0.09;100.00;101045.92;105277;1292;73971;-75
2022/12/08 04:48:47;;;;;;;36.70;14.20;;;;;;;0.09;100.00;101050.03;105277;1289;59808;-74
2022/12/08 04:51:18;;;;;;;25.70;13.70;;;;;;;-0.02;100.00;101053.20;105349;1293;59905;-74
2022/12/08 04:53:47;;;;;;;26.10;13.90;;;;;;;0.09;100.00;101052.42;105283;1291;71794;-76
2022/12/08 04:56:18;;;;;;;24.20;13.20;;;;;;;0.09;100.00;101052.77;105596;1287;70415;-77
2022/12/08 04:58:47;;;;;;;28.70;14.50;;;;;;;0.15;100.00;101056.23;105107;1295;68140;-74
2022/12/08 05:01:15;;;;;;;24.50;12.70;;;;;;;0.14;100.00;101055.22;105339;1293;73113;-76
2022/12/08 05:03:44;;;;;;;25.20;13.70;;;;;;;0.11;100.00;101051.52;105294;1299;61779;-74
2022/12/08 05:06:13;;;;;;;25.40;14.40;;;;;;;0.11;100.00;101059.39;105059;1283;341839;-76
2022/12/08 05:08:43;;;;;;;33.90;16.60;;;;;;;0.13;100.00;101060.03;105023;1302;71535;-77
2022/12/08 05:11:12;;;;;;;38.40;17.80;;;;;;;0.26;100.00;101061.79;105203;1293;72216;-76
2022/12/08 05:13:41;;;;;;;43.20;18.30;;;;;;;0.25;100.00;101061.64;105253;1292;70669;-78
2022/12/08 05:16:14;;;;;;;34.20;15.60;;;;;;;0.02;100.00;101060.98;105133;1298;73895;-71
2022/12/08 05:18:43;;;;;;;27.00;13.70;;;;;;;0.15;100.00;101062.04;105181;1292;57135;-78
2022/12/08 05:21:12;;;;;;;28.80;15.10;;;;;;;0.20;100.00;101064.84;105360;1293;60453;-77
2022/12/08 05:23:40;;;;;;;36.70;19.30;;;;;;;0.14;100.00;101065.84;105328;1299;73434;-78
2022/12/08 05:26:09;;;;;;;35.00;16.90;;;;;;;0.05;100.00;101071.01;105482;1290;70354;-78
2022/12/08 05:28:37;;;;;;;32.80;16.90;;;;;;;0.11;100.00;101072.75;105365;1284;70609;-78
2022/12/08 05:31:15;;;;;;;32.20;13.60;;;;;;;0.06;100.00;101076.80;105357;1292;70872;-73
2022/12/08 05:33:45;;;;;;;28.20;14.20;;;;;;;0.06;100.00;101084.18;105174;1290;60459;-73
2022/12/08 05:36:15;;;;;;;33.60;12.80;;;;;;;0.13;100.00;101091.55;105319;1284;60323;-73
2022/12/08 05:38:44;;;;;;;27.50;13.90;;;;;;;0.06;100.00;101093.61;105142;1287;74335;-73
2022/12/08 05:41:17;;;;;;;29.90;14.30;;;;;;;0.13;100.00;101100.12;105372;1296;70416;-76
2022/12/08 05:43:47;;;;;;;40.90;15.90;;;;;;;0.06;100.00;101100.80;105322;1299;68068;-73
2022/12/08 05:46:16;;;;;;;29.50;14.10;;;;;;;0.00;100.00;101107.76;105269;1299;72911;-74
2022/12/08 05:48:45;;;;;;;50.50;16.60;;;;;;;0.06;100.00;101106.98;105148;1296;59877;-73
2022/12/08 05:51:23;;;;;;;34.80;15.90;;;;;;;0.05;100.00;101108.86;105317;1293;60268;-75
2022/12/08 05:53:53;;;;;;;28.00;15.80;;;;;;;0.04;100.00;101114.89;105208;1292;73863;-74
2022/12/08 05:56:22;;;;;;;23.10;12.40;;;;;;;0.07;100.00;101116.69;105480;1293;70420;-74
2022/12/08 05:58:50;;;;;;;27.30;13.20;;;;;;;0.08;100.00;101118.73;105394;1299;70458;-73
2022/12/08 06:01:26;;;;;;;28.60;12.50;;;;;;;0.01;100.00;101116.66;105358;1292;72634;-75
2022/12/08 06:03:57;;;;;;;35.60;13.30;;;;;;;-0.07;100.00;101117.35;105362;1290;62437;-75
2022/12/08 06:06:27;;;;;;;25.40;14.30;;;;;;;-0.14;100.00;101117.16;105148;1295;60005;-75
2022/12/08 06:08:56;;;;;;;26.70;13.20;;;;;;;-0.09;100.00;101123.73;105591;1289;74343;-74
2022/12/08 06:11:28;;;;;;;32.30;15.10;;;;;;;-0.10;100.00;101125.13;105462;1293;71297;-74
2022/12/08 06:13:58;;;;;;;23.90;13.00;;;;;;;-0.05;100.00;101133.06;105096;1295;69727;-73
2022/12/08 06:16:27;;;;;;;28.70;13.90;;;;;;;-0.01;100.00;101136.59;105377;1291;74615;-76
2022/12/08 06:18:56;;;;;;;27.00;13.20;;;;;;;0.05;100.00;101142.61;105192;1287;60964;-75
2022/12/08 06:21:25;;;;;;;27.20;13.40;;;;;;;0.07;100.00;101146.48;105252;1290;59445;-73
2022/12/08 06:23:54;;;;;;;24.50;13.10;;;;;;;0.07;100.00;101150.27;105111;1292;73651;-75
2022/12/08 06:26:23;;;;;;;25.80;13.20;;;;;;;0.13;100.00;101154.07;105082;1287;71335;-73
2022/12/08 06:28:51;;;;;;;27.10;13.80;;;;;;;0.19;100.00;101158.91;105216;1293;69633;-75
2022/12/08 06:31:25;;;;;;;31.10;13.40;;;;;;;0.08;100.00;101160.35;105233;1288;71184;-73
2022/12/08 06:33:54;;;;;;;29.90;13.70;;;;;;;0.14;100.00;101156.79;105079;1293;60304;-74
2022/12/08 06:36:26;;;;;;;28.80;13.70;;;;;;;0.20;100.00;101160.94;105262;1289;60044;-72
2022/12/08 06:38:56;;;;;;;33.20;14.90;;;;;;;0.31;100.00;101158.30;105037;1291;71813;-73
2022/12/08 06:41:25;;;;;;;30.90;13.50;;;;;;;0.35;100.00;101159.92;105341;1288;71508;-73
2022/12/08 06:43:57;;;;;;;39.70;14.90;;;;;;;0.43;100.00;101165.05;105263;1294;68427;-72
2022/12/08 06:46:26;;;;;;;28.30;14.70;;;;;;;0.45;100.00;101163.11;105335;1292;71286;-80
2022/12/08 06:48:54;;;;;;;29.40;13.40;;;;;;;0.41;100.00;101166.11;105361;1292;60656;-78
2022/12/08 06:51:23;;;;;;;39.20;14.80;;;;;;;0.50;100.00;101166.07;105350;1289;60816;-77
2022/12/08 06:53:52;;;;;;;52.80;16.20;;;;;;;0.58;100.00;101163.32;105252;1289;71734;-78
2022/12/08 06:56:23;;;;;;;46.60;14.90;;;;;;;0.60;100.00;101165.68;105384;1290;70671;-77
2022/12/08 06:58:51;;;;;;;56.70;17.20;;;;;;;0.58;100.00;101162.63;105268;1290;70885;-78
2022/12/08 07:01:20;;;;;;;48.90;14.90;;;;;;;0.58;100.00;101159.36;105361;1302;72874;-78
2022/12/08 07:03:49;;;;;;;32.90;14.20;;;;;;;0.54;100.00;101162.55;105294;1299;61093;-78
2022/12/08 07:06:24;;;;;;;37.40;15.80;;;;;;;0.72;100.00;101160.24;105175;1295;59597;-79
2022/12/08 07:08:52;;;;;;;38.10;15.40;;;;;;;0.77;100.00;101167.13;105177;1293;73642;-78
2022/12/08 07:11:21;;;;;;;41.10;15.60;;;;;;;0.85;100.00;101166.26;105388;1287;69530;-78
2022/12/08 07:13:50;;;;;;;43.70;15.10;;;;;;;0.97;100.00;101172.46;105265;1292;68748;-77
2022/12/08 07:16:19;;;;;;;33.30;14.40;;;;;;;1.04;100.00;101175.91;105359;1289;73949;-76
2022/12/08 07:18:47;;;;;;;48.30;16.60;;;;;;;1.05;100.00;101182.05;105370;1289;61794;-77
2022/12/08 07:21:17;;;;;;;55.00;17.60;;;;;;;0.98;100.00;101176.92;105143;1295;58938;-77
2022/12/08 07:23:47;;;;;;;42.80;16.70;;;;;;;1.00;100.00;101176.52;105209;1292;71379;-75
2022/12/08 07:26:23;;;;;;;41.80;16.70;;;;;;;1.12;100.00;101174.14;105376;1293;60876;-76
2022/12/08 07:28:52;;;;;;;45.00;18.30;;;;;;;1.10;100.00;101176.43;105239;1292;68744;-77
2022/12/08 07:31:23;;;;;;;30.80;16.00;;;;;;;1.12;100.00;101183.05;105337;1290;71298;-78
2022/12/08 07:33:53;;;;;;;38.90;16.40;;;;;;;1.31;100.00;101184.30;105380;1298;57228;-76
2022/12/08 07:36:23;;;;;;;43.40;19.80;;;;;;;1.20;100.00;101185.09;105293;1284;58828;-78
2022/12/08 07:38:52;;;;;;;37.90;18.90;;;;;;;1.11;100.00;101179.52;105242;1287;71774;-76
2022/12/08 07:41:24;;;;;;;41.40;17.70;;;;;;;1.22;100.00;101177.49;105439;1290;69237;-77
2022/12/08 07:43:55;;;;;;;28.40;15.00;;;;;;;1.24;100.00;101180.20;105306;1295;67947;-77
2022/12/08 07:46:25;;;;;;;24.90;13.60;;;;;;;1.20;100.00;101188.34;105400;1290;73174;-77
2022/12/08 07:48:54;;;;;;;32.80;16.30;;;;;;;1.28;100.00;101189.88;105053;1292;60327;-77
2022/12/08 07:51:24;;;;;;;39.60;18.70;;;;;;;1.26;100.00;101191.65;105230;1295;59832;-76
2022/12/08 07:53:52;;;;;;;39.70;17.70;;;;;;;1.24;100.00;101190.14;105207;1301;71706;-77
2022/12/08 07:56:23;;;;;;;41.00;17.70;;;;;;;1.36;100.00;101193.09;105423;1290;72284;-79
2022/12/08 07:58:52;;;;;;;51.10;21.90;;;;;;;1.44;100.00;101193.55;105153;1295;70428;-77
2022/12/08 08:01:33;;;;;;;34.90;18.30;;;;;;;1.46;100.00;101195.73;105371;1292;71759;-78
2022/12/08 08:04:04;;;;;;;40.20;17.80;;;;;;;1.70;100.00;101194.05;105438;1290;60916;-77
2022/12/08 08:06:35;;;;;;;42.30;20.10;;;;;;;1.73;100.00;101200.67;105153;1302;60746;-78
2022/12/08 08:09:05;;;;;;;59.40;21.70;;;;;;;1.74;100.00;101206.14;105197;1295;72171;-77
2022/12/08 08:11:34;;;;;;;37.10;17.90;;;;;;;1.68;100.00;101211.77;105429;1293;72256;-77
2022/12/08 08:14:02;;;;;;;47.00;19.00;;;;;;;1.81;100.00;101213.48;105237;1291;69672;-78
2022/12/08 08:16:31;;;;;;;48.20;19.50;;;;;;;1.75;100.00;101212.27;105355;1288;72094;-78
2022/12/08 08:19:05;;;;;;;39.70;17.90;;;;;;;1.82;100.00;101205.88;105327;1286;61198;-77
2022/12/08 08:21:34;;;;;;;40.60;18.10;;;;;;;1.93;100.00;101206.13;105255;1296;59346;-77
2022/12/08 08:24:13;;;;;;;35.30;17.60;;;;;;;1.83;100.00;101205.36;105269;1299;62339;-79
2022/12/08 08:26:42;;;;;;;52.50;20.10;;;;;;;1.98;100.00;101202.87;105479;1293;69722;-78
2022/12/08 08:29:11;;;;;;;41.60;17.70;;;;;;;2.14;100.00;101202.73;105159;1295;69705;-78
2022/12/08 08:31:39;;;;;;;45.80;21.00;;;;;;;2.38;100.00;101203.58;105357;1290;73217;-78
2022/12/08 08:34:08;;;;;;;44.50;19.90;;;;;;;2.37;100.00;101204.45;105259;1298;57660;-78
2022/12/08 08:36:38;;;;;;;49.60;21.40;;;;;;;2.42;100.00;101209.81;105302;1293;57709;-78
2022/12/08 08:39:07;;;;;;;42.60;20.40;;;;;;;2.48;100.00;101211.69;105305;1303;62141;-78
2022/12/08 08:41:36;;;;;;;44.40;21.00;;;;;;;2.52;100.00;101212.63;105348;1293;61610;-78
2022/12/08 08:44:05;;;;;;;38.80;18.00;;;;;;;2.65;100.00;101208.73;105394;1299;68244;-77
2022/12/08 08:46:33;;;;;;;46.90;21.60;;;;;;;2.71;100.00;101207.71;105332;1290;72690;-78
2022/12/08 08:49:02;;;;;;;48.80;20.00;;;;;;;2.65;100.00;101205.14;105258;1294;58008;-77
2022/12/08 08:51:31;;;;;;;62.60;24.30;;;;;;;2.66;100.00;101201.14;105375;1292;57667;-77
2022/12/08 08:53:59;;;;;;;52.40;23.60;;;;;;;2.42;100.00;101197.79;105150;1287;73088;-77
2022/12/08 08:56:29;;;;;;;54.20;22.90;;;;;;;2.58;100.00;101198.15;105078;1297;72299;-77
2022/12/08 08:58:58;;;;;;;57.20;23.50;;;;;;;2.69;100.00;101195.72;105351;1289;70479;-79
2022/12/08 09:01:27;;;;;;;50.50;21.90;;;;;;;2.60;100.00;101197.20;105384;1289;74654;-77
2022/12/08 09:03:56;;;;;;;58.70;24.70;;;;;;;2.37;100.00;101195.34;105241;1295;61358;-78
2022/12/08 09:06:26;;;;;;;53.80;20.80;;;;;;;2.34;100.00;101189.93;105026;1293;59476;-77
2022/12/08 09:08:56;;;;;;;47.90;21.10;;;;;;;2.45;100.00;101188.06;105263;1294;63221;-79
2022/12/08 09:11:26;;;;;;;47.90;21.40;;;;;;;2.26;100.00;101187.09;105240;1290;72987;-77
2022/12/08 09:13:55;;;;;;;40.90;17.20;;;;;;;2.50;100.00;101189.80;105337;1293;68455;-78
2022/12/08 09:16:24;;;;;;;49.20;22.50;;;;;;;2.65;100.00;101193.45;105328;1290;73951;-78
2022/12/08 09:18:53;;;;;;;45.50;20.30;;;;;;;2.66;100.00;101191.33;105266;1295;61337;-78
2022/12/08 09:21:25;;;;;;;43.90;19.90;;;;;;;2.93;100.00;101193.04;105379;1292;61043;-77
2022/12/08 09:23:57;;;;;;;41.90;19.20;;;;;;;3.03;100.00;101192.19;105239;1292;62774;-78
2022/12/08 09:26:27;;;;;;;42.70;19.80;;;;;;;3.00;100.00;101192.29;105309;1290;61618;-77
2022/12/08 09:28:56;;;;;;;38.50;19.00;;;;;;;2.96;100.00;101192.09;105177;1298;61908;-77
2022/12/08 09:31:25;;;;;;;55.70;22.20;;;;;;;2.96;100.00;101184.67;105260;1299;63838;-78
2022/12/08 09:33:54;;;;;;;49.00;22.10;;;;;;;3.18;100.00;101184.65;105113;1286;57112;-78
2022/12/08 09:36:23;;;;;;;49.40;20.70;;;;;;;3.13;100.00;101185.66;105194;1293;61199;-77
2022/12/08 09:38:53;;;;;;;55.30;21.30;;;;;;;3.07;100.00;101184.67;105197;1298;64163;-79
2022/12/08 09:41:45;;;;;;;56.00;24.20;;;;;;;3.09;100.00;101176.52;105268;1290;72280;-78
2022/12/08 09:44:43;;;;;;;57.90;24.30;;;;;;;2.92;100.00;101175.88;105102;1299;60457;-75
2022/12/08 09:47:21;;;;;;;54.30;23.30;;;;;;;2.92;100.00;101178.47;105020;1295;74099;-77
2022/12/08 09:50:11;;;;;;;60.30;25.60;;;;;;;3.03;100.00;101176.20;105194;1292;57644;-79
2022/12/08 09:52:52;;;;;;;46.20;20.40;;;;;;;3.33;100.00;101179.83;105076;1295;61485;-76
2022/12/08 09:55:42;;;;;;;47.70;24.90;;;;;;;3.35;100.00;101181.12;105207;1299;63487;-77
2022/12/08 09:58:50;;;;;;;63.10;28.00;;;;;;;3.27;100.00;101181.25;105249;1290;60724;-77
2022/12/08 10:01:21;;;;;;;54.00;24.60;;;;;;;3.09;100.00;101184.44;105121;1303;59415;-78
2022/12/08 10:03:51;;;;;;;40.10;19.90;;;;;;;3.13;100.00;101186.87;104908;1298;64333;-77
2022/12/08 10:06:58;;;;;;;57.40;26.90;;;;;;;3.08;100.00;101182.92;105033;1299;61439;-77
2022/12/08 10:10:20;;;;;;;40.70;19.30;;;;;;;2.96;100.00;101177.98;105254;1294;61696;-78
2022/12/08 10:13:01;;;;;;;50.60;23.90;;;;;;;2.94;100.00;101172.71;105076;1298;62225;-77
2022/12/08 10:16:02;;;;;;;59.60;27.80;;;;;;;2.86;100.00;101168.86;105268;1296;62131;-77
2022/12/08 10:18:33;;;;;;;66.90;27.30;;;;;;;2.95;100.00;101164.45;105232;1292;70559;-79
2022/12/08 10:21:24;;;;;;;62.80;29.30;;;;;;;2.89;100.00;101160.52;105090;1299;63150;-79
2022/12/08 10:24:01;;;;;;;63.40;28.10;;;;;;;2.95;100.00;101160.11;105086;1289;58120;-80
2022/12/08 10:26:31;;;;;;;67.70;30.60;;;;;;;3.09;100.00;101153.64;105050;1292;60463;-78
2022/12/08 10:29:01;;;;;;;65.80;28.70;;;;;;;3.08;100.00;101154.51;105249;1297;73941;-79
2022/12/08 10:31:31;;;;;;;59.30;27.60;;;;;;;3.10;100.00;101150.50;105354;1287;61606;-80
2022/12/08 10:34:22;;;;;;;51.50;24.40;;;;;;;3.29;100.00;101147.58;105151;1295;68973;-79
2022/12/08 10:36:56;;;;;;;60.10;27.30;;;;;;;3.47;100.00;101151.09;105395;1286;64011;-79
2022/12/08 10:39:44;;;;;;;62.00;27.10;;;;;;;3.67;100.00;101151.92;105228;1295;61412;-79
2022/12/08 10:42:13;;;;;;;63.10;25.10;;;;;;;3.66;100.00;101155.56;105266;1296;61096;-79
2022/12/08 10:44:58;;;;;;;55.10;23.80;;;;;;;3.57;100.00;101151.77;105256;1290;73539;-80
2022/12/08 10:47:29;;;;;;;55.40;22.90;;;;;;;3.85;100.00;101154.70;105349;1291;71107;-80
2022/12/08 10:50:31;;;;;;;56.50;26.50;;;;;;;3.71;100.00;101161.77;105351;1295;70559;-81
2022/12/08 10:53:24;;;;;;;59.70;26.10;;;;;;;3.59;100.00;101161.67;105144;1292;73873;-79
2022/12/08 10:56:02;;;;;;;63.40;28.60;;;;;;;3.47;100.00;101160.05;105225;1303;61838;-80
2022/12/08 10:58:39;;;;;;;43.50;17.80;;;;;;;3.72;100.00;101163.46;105234;1299;60364;-81
2022/12/08 11:01:19;;;;;;;48.00;21.40;;;;;;;3.87;99.58;101156.14;105251;1303;62196;-79
2022/12/08 11:04:16;;;;;;;39.90;18.10;;;;;;;3.77;99.21;101168.09;105413;1293;71520;-80
2022/12/08 11:06:47;;;;;;;55.80;23.60;;;;;;;3.44;99.76;101164.29;105241;1299;59258;-81
2022/12/08 11:09:35;;;;;;;57.00;23.90;;;;;;;3.10;100.00;101163.73;105112;1301;73176;-81
2022/12/08 11:12:13;;;;;;;55.40;23.80;;;;;;;2.97;100.00;101160.05;105354;1292;61530;-81
2022/12/08 11:14:41;;;;;;;53.70;27.20;;;;;;;2.88;100.00;101155.02;105342;1289;60399;-81
2022/12/08 11:17:23;;;;;;;50.10;23.20;;;;;;;3.01;100.00;101148.39;105332;1299;63287;-79
2022/12/08 11:20:05;;;;;;;44.50;21.70;;;;;;;3.16;100.00;101145.11;105345;1290;71452;-81
2022/12/08 11:22:43;;;;;;;56.00;24.30;;;;;;;3.17;100.00;101143.21;105257;1296;70088;-80
2022/12/08 11:25:26;;;;;;;55.60;25.30;;;;;;;3.09;100.00;101140.55;105180;1297;71960;-82
2022/12/08 11:28:00;;;;;;;58.10;23.80;;;;;;;3.13;100.00;101135.09;105246;1299;60339;-80
2022/12/08 11:30:42;;;;;;;69.50;28.70;;;;;;;3.00;100.00;101133.63;105114;1304;57738;-78
2022/12/08 11:33:20;;;;;;;63.60;26.90;;;;;;;3.01;100.00;101127.40;105175;1294;71839;-79
2022/12/08 11:35:59;;;;;;;61.00;24.90;;;;;;;3.03;100.00;101122.88;105367;1287;60785;-78